Time;durP1;ratioP1;P1;durP2;ratioP2;P2;SDS_P1;SDS_P2;PMS_P1;PMS_P2;Temp;Humidity;BMP_temperature;BMP_pressure;BME280_temperature;BME280_humidity;BME280_pressure;Samples;Min_cycle;Max_cycle;Signal;HPM_P1;HPM_P2
2021/08/20 00:00:26;;;;;;;3.74;2.10;;;;;;;16.89;91.47;99340.34;2001163;78;21548;-76
2021/08/20 00:03:29;;;;;;;2.34;1.83;;;;;;;16.87;91.56;99342.13;2004947;80;20646;-76
2021/08/20 00:06:33;;;;;;;3.38;1.90;;;;;;;16.86;91.33;99336.00;2005134;80;20181;-76
2021/08/20 00:09:35;;;;;;;2.47;2.22;;;;;;;16.85;91.28;99344.78;2005230;80;20188;-76
2021/08/20 00:12:38;;;;;;;4.79;2.14;;;;;;;16.83;91.04;99349.22;2004902;80;20298;-77
2021/08/20 00:15:41;;;;;;;3.29;2.25;;;;;;;16.81;90.80;99343.19;2004513;78;20174;-76
2021/08/20 00:18:43;;;;;;;3.88;2.21;;;;;;;16.78;90.58;99345.91;2001318;81;20316;-76
2021/08/20 00:21:46;;;;;;;2.31;2.11;;;;;;;16.79;90.43;99354.63;2002904;81;20243;-76
2021/08/20 00:24:49;;;;;;;3.14;2.09;;;;;;;16.80;90.09;99351.94;2002230;81;20298;-76
2021/08/20 00:27:52;;;;;;;5.90;2.10;;;;;;;16.79;89.97;99358.09;2001914;81;20532;-77
2021/08/20 00:30:54;;;;;;;3.76;2.42;;;;;;;16.75;89.67;99361.72;2001370;78;22405;-76
2021/08/20 00:33:58;;;;;;;3.95;3.55;;;;;;;16.77;89.70;99361.69;2004237;80;20193;-76
2021/08/20 00:37:00;;;;;;;3.09;2.45;;;;;;;16.76;89.40;99362.59;2007604;80;20161;-76
2021/08/20 00:40:05;;;;;;;4.85;2.53;;;;;;;16.72;88.92;99363.59;2006946;80;20181;-76
2021/08/20 00:43:10;;;;;;;4.15;2.53;;;;;;;16.69;88.65;99358.41;2006885;80;20173;-76
2021/08/20 00:46:13;;;;;;;2.65;2.34;;;;;;;16.71;88.59;99360.09;2007630;78;20841;-76
2021/08/20 00:49:16;;;;;;;3.20;2.90;;;;;;;16.70;88.25;99360.16;2012500;80;20302;-76
2021/08/20 00:52:19;;;;;;;4.40;2.30;;;;;;;16.67;88.13;99357.59;2011322;80;20700;-77
2021/08/20 00:55:24;;;;;;;2.75;2.40;;;;;;;16.70;88.44;99354.91;2011708;80;20218;-76
2021/08/20 00:58:29;;;;;;;2.53;2.33;;;;;;;16.68;88.50;99354.06;2012186;80;20192;-76
2021/08/20 01:01:33;;;;;;;3.64;2.60;;;;;;;16.67;88.46;99357.59;2008874;77;22225;-76
2021/08/20 01:04:37;;;;;;;5.43;2.05;;;;;;;16.62;88.05;99355.94;2007692;80;20201;-76
2021/08/20 01:07:39;;;;;;;3.05;2.34;;;;;;;16.59;87.94;99360.44;2007119;80;20420;-76
2021/08/20 01:10:42;;;;;;;3.31;2.31;;;;;;;16.59;88.03;99361.28;2007264;80;20173;-76
2021/08/20 01:13:45;;;;;;;3.17;2.29;;;;;;;16.58;88.41;99359.56;2006948;80;20177;-76
2021/08/20 01:16:48;;;;;;;2.50;2.29;;;;;;;16.57;88.62;99357.84;2009322;78;23105;-76
2021/08/20 01:19:51;;;;;;;2.54;1.99;;;;;;;16.55;88.66;99358.81;2012016;80;20194;-76
2021/08/20 01:22:53;;;;;;;3.34;2.14;;;;;;;16.52;88.55;99351.91;2012032;80;20169;-76
2021/08/20 01:25:57;;;;;;;3.67;1.86;;;;;;;16.48;88.31;99362.50;2012427;80;20203;-76
2021/08/20 01:29:00;;;;;;;2.15;2.03;;;;;;;16.43;88.38;99351.28;2012421;80;20614;-77
2021/08/20 01:32:03;;;;;;;2.54;2.22;;;;;;;16.40;88.30;99356.63;2010818;78;25356;-76
2021/08/20 01:35:06;;;;;;;3.76;2.41;;;;;;;16.37;88.34;99361.97;2008183;80;20790;-76
2021/08/20 01:38:08;;;;;;;6.63;2.13;;;;;;;16.29;88.24;99355.16;2007924;80;20306;-76
2021/08/20 01:41:11;;;;;;;2.40;1.95;;;;;;;16.26;88.55;99359.63;2008817;80;20670;-76
2021/08/20 01:44:14;;;;;;;2.19;2.09;;;;;;;16.25;88.75;99352.66;2007737;80;21119;-76
2021/08/20 01:47:17;;;;;;;4.40;1.71;;;;;;;16.23;88.88;99355.34;2011114;77;23712;-77
2021/08/20 01:50:19;;;;;;;3.85;2.45;;;;;;;16.20;88.92;99360.66;2013267;80;20932;-77
2021/08/20 01:53:22;;;;;;;1.79;1.69;;;;;;;16.18;89.03;99356.38;2013501;80;20169;-76
2021/08/20 01:56:27;;;;;;;3.51;1.85;;;;;;;16.17;89.35;99363.38;2013014;80;20266;-76
2021/08/20 01:59:29;;;;;;;3.24;1.83;;;;;;;16.15;89.55;99359.91;2013955;80;20628;-77
2021/08/20 02:02:32;;;;;;;4.13;1.76;;;;;;;16.14;89.81;99365.19;2012740;77;22735;-77
2021/08/20 02:05:35;;;;;;;6.06;2.22;;;;;;;16.13;89.83;99358.25;2014523;80;20288;-76
2021/08/20 02:08:38;;;;;;;5.51;2.22;;;;;;;16.13;89.96;99355.63;2015009;80;20258;-76
2021/08/20 02:11:40;;;;;;;1.73;1.59;;;;;;;16.13;89.96;99356.47;2014812;80;20172;-77
2021/08/20 02:14:43;;;;;;;4.26;1.89;;;;;;;16.13;89.74;99347.75;2014368;80;20180;-77
2021/08/20 02:17:45;;;;;;;3.20;1.92;;;;;;;16.11;89.80;99350.44;2009123;77;20229;-77
2021/08/20 02:20:48;;;;;;;3.16;2.22;;;;;;;16.12;89.87;99353.91;2009813;80;20203;-76
2021/08/20 02:23:51;;;;;;;2.38;2.05;;;;;;;16.12;89.74;99362.63;2009512;80;20177;-77
2021/08/20 02:26:53;;;;;;;2.71;1.80;;;;;;;16.15;89.64;99359.06;2008724;80;20234;-76
2021/08/20 02:29:56;;;;;;;1.98;1.75;;;;;;;16.15;89.71;99359.91;2008716;80;20165;-77
2021/08/20 02:32:58;;;;;;;4.43;1.83;;;;;;;16.14;89.94;99360.81;2012571;77;21404;-77
2021/08/20 02:36:06;;;;;;;3.15;2.21;;;;;;;16.12;90.29;99359.13;2014834;80;20293;-76
2021/08/20 02:39:09;;;;;;;3.39;2.16;;;;;;;16.11;90.21;99360.91;2013843;80;20202;-76
2021/08/20 02:42:11;;;;;;;2.22;2.04;;;;;;;16.08;90.34;99360.13;2014657;80;20176;-76
2021/08/20 02:45:14;;;;;;;6.71;2.04;;;;;;;16.07;90.18;99364.50;2013831;80;20164;-76
2021/08/20 02:48:17;;;;;;;2.59;2.01;;;;;;;16.05;90.22;99365.47;2014345;78;20817;-76
2021/08/20 02:51:19;;;;;;;2.40;2.20;;;;;;;16.01;90.05;99362.06;2014039;80;20164;-76
2021/08/20 02:54:22;;;;;;;2.85;2.04;;;;;;;15.97;90.31;99363.03;2013298;80;20264;-76
2021/08/20 02:57:28;;;;;;;4.15;2.01;;;;;;;15.93;90.40;99364.88;2014904;80;20250;-76
2021/08/20 03:00:31;;;;;;;3.96;1.90;;;;;;;15.89;90.49;99368.47;2012392;78;20661;-76
2021/08/20 03:03:33;;;;;;;1.80;1.70;;;;;;;15.87;90.48;99364.19;2007840;80;20220;-75
2021/08/20 03:06:36;;;;;;;2.41;1.66;;;;;;;15.84;90.41;99367.75;2007998;80;20282;-76
2021/08/20 03:09:39;;;;;;;2.28;2.03;;;;;;;15.79;90.32;99363.50;2007296;80;20182;-76
2021/08/20 03:12:43;;;;;;;5.74;2.33;;;;;;;15.73;90.27;99359.31;2007362;80;20259;-76
2021/08/20 03:15:45;;;;;;;3.49;2.15;;;;;;;15.67;90.10;99360.34;2008285;78;21541;-76
2021/08/20 03:18:48;;;;;;;3.33;2.00;;;;;;;15.61;90.18;99355.22;2012458;80;20208;-75
2021/08/20 03:21:51;;;;;;;2.38;2.15;;;;;;;15.55;89.91;99350.13;2013136;80;20649;-76
2021/08/20 03:24:53;;;;;;;3.83;2.42;;;;;;;15.47;89.81;99359.09;2012912;80;20265;-76
2021/08/20 03:27:56;;;;;;;4.69;2.44;;;;;;;15.42;90.08;99357.41;2012504;80;20222;-77
2021/08/20 03:30:59;;;;;;;3.31;3.01;;;;;;;15.35;90.35;99353.25;2014856;77;21322;-76
2021/08/20 03:34:01;;;;;;;2.40;2.20;;;;;;;15.31;90.63;99361.22;2013489;80;20197;-76
2021/08/20 03:37:04;;;;;;;2.84;2.20;;;;;;;15.30;90.85;99360.34;2013244;80;20184;-77
2021/08/20 03:40:07;;;;;;;3.14;2.30;;;;;;;15.31;nan;99361.22;2013202;80;20877;-77
2021/08/20 03:43:10;;;;;;;4.11;2.35;;;;;;;15.31;91.16;99363.84;2009073;80;20323;-78
2021/08/20 03:46:14;;;;;;;2.54;2.34;;;;;;;15.32;91.19;99357.69;2011880;78;20658;-76
2021/08/20 03:49:17;;;;;;;3.38;2.20;;;;;;;15.31;91.27;99355.97;2013750;80;20738;-77
2021/08/20 03:52:20;;;;;;;4.53;2.60;;;;;;;15.29;91.29;99356.03;2012170;80;20861;-76
2021/08/20 03:55:23;;;;;;;2.88;2.08;;;;;;;15.29;91.31;99356.03;2008332;80;20241;-76
2021/08/20 03:58:26;;;;;;;3.14;2.00;;;;;;;15.27;91.41;99365.66;2011410;80;20172;-76
2021/08/20 04:01:29;;;;;;;3.38;2.30;;;;;;;15.28;91.29;99358.69;2008897;78;25040;-77
2021/08/20 04:04:32;;;;;;;4.72;2.42;;;;;;;15.26;91.01;99365.66;2008508;80;20222;-76
2021/08/20 04:07:35;;;;;;;3.20;2.01;;;;;;;15.19;91.02;99364.09;2007380;80;20574;-76
2021/08/20 04:10:37;;;;;;;2.55;2.08;;;;;;;15.14;91.04;99359.00;2007325;80;20200;-77
2021/08/20 04:13:41;;;;;;;4.94;2.45;;;;;;;15.12;91.06;99368.63;2008227;80;20591;-76
2021/08/20 04:16:43;;;;;;;3.71;2.24;;;;;;;15.11;91.12;99364.31;2009771;77;20817;-77
2021/08/20 04:19:46;;;;;;;2.56;1.88;;;;;;;15.06;91.20;99372.22;2013151;80;20172;-76
2021/08/20 04:22:48;;;;;;;3.41;2.33;;;;;;;15.03;91.04;99376.69;2012675;80;20617;-77
2021/08/20 04:25:51;;;;;;;4.15;2.28;;;;;;;14.98;90.85;99374.19;2012512;80;20225;-76
2021/08/20 04:28:54;;;;;;;2.97;2.21;;;;;;;14.96;90.79;99383.81;2013504;80;20201;-76
2021/08/20 04:31:57;;;;;;;2.54;2.31;;;;;;;14.92;90.89;99383.91;2008544;78;21073;-76
2021/08/20 04:34:59;;;;;;;3.58;2.58;;;;;;;14.88;90.89;99392.69;2007561;80;20191;-76
2021/08/20 04:38:02;;;;;;;3.22;2.40;;;;;;;14.84;91.01;99391.06;2007570;80;20269;-76
2021/08/20 04:41:05;;;;;;;6.49;2.84;;;;;;;14.84;91.26;99397.13;2008184;80;20211;-76
2021/08/20 04:44:08;;;;;;;5.11;3.08;;;;;;;14.80;90.97;99395.50;2007207;80;20210;-77
2021/08/20 04:47:10;;;;;;;5.59;2.25;;;;;;;14.76;91.10;99389.47;2010195;78;20236;-77
2021/08/20 04:50:13;;;;;;;2.53;2.30;;;;;;;14.77;91.23;99406.88;2012998;80;20194;-77
2021/08/20 04:53:16;;;;;;;4.39;2.79;;;;;;;14.76;91.42;99404.31;2012807;80;20513;-76
2021/08/20 04:56:18;;;;;;;3.05;1.99;;;;;;;14.76;91.27;99412.16;2012508;80;20234;-76
2021/08/20 04:59:21;;;;;;;4.50;2.36;;;;;;;14.74;91.30;99416.53;2012495;80;20270;-76
2021/08/20 05:02:24;;;;;;;4.00;2.38;;;;;;;14.72;91.26;99411.34;2008827;78;20822;-76
2021/08/20 05:05:27;;;;;;;4.89;2.35;;;;;;;14.73;91.21;99414.81;2007525;80;20274;-76
2021/08/20 05:08:30;;;;;;;2.50;2.25;;;;;;;14.73;91.04;99418.31;2007490;80;20280;-76
2021/08/20 05:11:34;;;;;;;3.10;2.26;;;;;;;14.73;90.94;99417.44;2008266;80;20214;-76
2021/08/20 05:14:37;;;;;;;3.70;2.35;;;;;;;14.72;90.93;99416.56;2007616;80;20725;-76
2021/08/20 05:17:40;;;;;;;2.44;2.24;;;;;;;14.73;91.07;99422.66;2010775;78;21319;-76
2021/08/20 05:20:42;;;;;;;3.71;2.63;;;;;;;14.75;91.21;99429.59;2012522;80;20251;-76
2021/08/20 05:23:45;;;;;;;2.95;1.90;;;;;;;14.77;91.01;99430.41;2012402;80;20210;-77
2021/08/20 05:26:47;;;;;;;3.63;2.26;;;;;;;14.81;91.21;99423.34;2012544;80;20562;-76
2021/08/20 05:29:50;;;;;;;2.46;2.30;;;;;;;14.85;91.17;99426.75;2012977;80;20176;-76
2021/08/20 05:32:52;;;;;;;2.74;2.10;;;;;;;14.90;91.07;99422.28;2006067;78;20394;-76
2021/08/20 05:35:56;;;;;;;6.06;2.34;;;;;;;14.93;91.08;99424.84;2007558;80;20364;-76
2021/08/20 05:38:58;;;;;;;4.25;2.78;;;;;;;14.99;91.06;99422.09;2006495;80;20315;-76
2021/08/20 05:42:02;;;;;;;4.20;2.95;;;;;;;15.08;90.99;99430.63;2006951;80;20199;-77
2021/08/20 05:45:07;;;;;;;2.49;2.30;;;;;;;15.16;90.90;99433.06;2006818;80;20199;-76
2021/08/20 05:48:11;;;;;;;3.40;2.65;;;;;;;15.31;90.76;99435.31;2011899;78;22469;-76
2021/08/20 05:51:13;;;;;;;2.44;2.24;;;;;;;15.55;90.22;99438.25;2008240;80;20645;-76
2021/08/20 05:54:16;;;;;;;2.47;2.34;;;;;;;15.95;88.99;99441.63;2012623;80;20347;-76
2021/08/20 05:57:19;;;;;;;2.78;2.30;;;;;;;16.33;87.29;99448.50;2011781;80;20186;-76
2021/08/20 06:00:21;;;;;;;2.25;2.03;;;;;;;16.58;85.97;99443.47;2014216;77;23227;-76
2021/08/20 06:03:24;;;;;;;2.16;2.04;;;;;;;16.85;84.93;99452.31;2012248;80;20157;-76
2021/08/20 06:06:27;;;;;;;3.51;2.64;;;;;;;17.08;83.28;99458.69;2011526;80;20208;-76
2021/08/20 06:09:30;;;;;;;2.01;1.91;;;;;;;17.24;82.25;99453.84;2011949;80;20626;-76
2021/08/20 06:12:32;;;;;;;4.20;2.14;;;;;;;17.37;81.64;99460.41;2012103;80;20157;-76
2021/08/20 06:15:35;;;;;;;2.56;2.25;;;;;;;17.65;80.63;99453.38;2009753;77;22036;-76
2021/08/20 06:18:37;;;;;;;4.21;2.10;;;;;;;17.92;79.86;99466.56;2008461;80;20274;-76
2021/08/20 06:21:40;;;;;;;6.49;2.49;;;;;;;18.21;78.68;99463.81;2005987;80;20181;-76
2021/08/20 06:24:43;;;;;;;2.86;2.20;;;;;;;18.47;77.61;99465.53;2002875;80;20230;-76
2021/08/20 06:27:45;;;;;;;7.57;3.40;;;;;;;18.80;76.51;99460.84;2006648;80;20195;-76
2021/08/20 06:30:48;;;;;;;5.59;3.40;;;;;;;19.08;74.05;99465.97;2006425;78;22545;-76
2021/08/20 06:33:53;;;;;;;6.07;4.34;;;;;;;19.35;72.75;99469.28;2013931;80;20650;-76
2021/08/20 06:36:56;;;;;;;4.32;3.83;;;;;;;19.48;70.31;99470.53;2012343;80;20257;-76
2021/08/20 06:39:58;;;;;;;7.55;4.14;;;;;;;19.70;69.53;99459.16;2010161;80;20177;-76
2021/08/20 06:43:01;;;;;;;6.39;4.45;;;;;;;19.84;68.98;99456.84;2012823;80;20797;-76
2021/08/20 06:46:04;;;;;;;5.47;4.51;;;;;;;19.91;68.60;99461.78;2010278;78;30278;-76
2021/08/20 06:49:08;;;;;;;6.29;4.40;;;;;;;20.06;67.85;99456.81;2008512;80;20768;-76
2021/08/20 06:52:11;;;;;;;5.60;4.31;;;;;;;19.91;67.07;99464.41;2008333;80;20218;-76
2021/08/20 06:55:13;;;;;;;4.88;4.25;;;;;;;19.97;67.32;99458.06;2009267;80;20190;-79
2021/08/20 06:58:16;;;;;;;9.45;4.66;;;;;;;20.14;67.18;99462.63;2008729;80;20190;-78
2021/08/20 07:01:18;;;;;;;7.60;4.07;;;;;;;20.26;66.37;99453.31;2010921;77;20496;-77
2021/08/20 07:04:21;;;;;;;6.05;4.96;;;;;;;20.38;65.76;99468.63;2014214;80;20623;-78
2021/08/20 07:07:24;;;;;;;4.71;3.84;;;;;;;20.40;64.70;99466.78;2015407;80;20185;-77
2021/08/20 07:10:26;;;;;;;6.20;3.53;;;;;;;20.47;64.01;99461.22;2014225;80;20173;-77
2021/08/20 07:13:30;;;;;;;3.44;2.86;;;;;;;20.64;64.23;99463.06;2013787;80;20200;-77
2021/08/20 07:16:32;;;;;;;4.57;3.25;;;;;;;20.81;64.12;99473.75;2010545;78;21486;-77
2021/08/20 07:19:35;;;;;;;7.32;3.71;;;;;;;21.03;64.12;99465.72;2007742;80;20189;-77
2021/08/20 07:22:38;;;;;;;6.66;4.16;;;;;;;21.10;62.63;99468.94;2008310;80;20173;-77
2021/08/20 07:25:40;;;;;;;7.05;4.05;;;;;;;21.12;62.05;99465.28;2009301;80;20654;-77
2021/08/20 07:28:43;;;;;;;8.11;4.01;;;;;;;21.33;61.67;99468.75;2007338;80;20165;-77
2021/08/20 07:31:45;;;;;;;5.21;3.95;;;;;;;21.41;61.82;99473.69;2007970;80;22017;-76
2021/08/20 07:34:48;;;;;;;5.10;3.45;;;;;;;21.17;61.34;99469.50;2006919;80;20197;-76
2021/08/20 07:37:50;;;;;;;3.35;2.88;;;;;;;21.26;61.71;99472.59;2007282;80;20246;-76
2021/08/20 07:40:53;;;;;;;3.42;2.54;;;;;;;21.50;61.93;99475.88;2011127;80;20194;-76
2021/08/20 07:43:56;;;;;;;5.75;3.08;;;;;;;21.82;62.04;99479.59;2007211;80;20190;-75
2021/08/20 07:46:59;;;;;;;4.90;3.29;;;;;;;22.10;60.50;99478.28;2007567;80;22123;-76
2021/08/20 07:50:02;;;;;;;5.45;3.01;;;;;;;22.09;59.92;99476.56;2008039;80;20227;-76
2021/08/20 07:53:05;;;;;;;7.53;4.18;;;;;;;22.08;59.41;99474.84;2007577;80;20276;-75
2021/08/20 07:56:07;;;;;;;7.00;3.70;;;;;;;22.19;58.73;99476.00;2008226;80;20169;-76
2021/08/20 07:59:10;;;;;;;5.55;2.70;;;;;;;22.36;59.00;99467.22;2008446;80;20173;-76
2021/08/20 08:02:12;;;;;;;7.14;3.05;;;;;;;22.66;58.78;99470.06;2007129;77;20746;-75
2021/08/20 08:05:16;;;;;;;2.97;2.46;;;;;;;22.74;57.01;99473.16;2007793;80;20661;-76
2021/08/20 08:08:18;;;;;;;2.30;2.01;;;;;;;22.74;56.61;99465.22;2007584;80;21048;-75
2021/08/20 08:11:21;;;;;;;2.16;1.95;;;;;;;22.95;57.23;99465.03;2007162;80;20214;-75
2021/08/20 08:14:23;;;;;;;1.80;1.49;;;;;;;23.21;56.49;99465.34;2007693;80;20341;-75
2021/08/20 08:17:26;;;;;;;1.67;1.30;;;;;;;23.12;55.17;99463.19;2006603;78;21891;-76
2021/08/20 08:20:29;;;;;;;2.59;1.40;;;;;;;23.09;54.83;99463.34;2007938;80;20773;-76
2021/08/20 08:23:32;;;;;;;6.10;1.33;;;;;;;23.17;56.12;99458.50;2007444;80;20181;-75
2021/08/20 08:26:38;;;;;;;2.10;0.85;;;;;;;23.41;55.44;99466.88;2007936;80;20421;-76
2021/08/20 08:29:40;;;;;;;3.11;0.70;;;;;;;23.40;54.05;99467.84;2007549;80;20165;-75
2021/08/20 08:32:43;;;;;;;1.85;0.73;;;;;;;23.45;53.84;99468.41;2006782;79;24096;-75
2021/08/20 08:35:46;;;;;;;2.65;0.75;;;;;;;23.44;54.24;99466.72;2006615;80;20184;-76
2021/08/20 08:38:48;;;;;;;1.85;0.60;;;;;;;23.50;53.58;99473.47;2008041;80;20187;-75
2021/08/20 08:41:51;;;;;;;0.86;0.49;;;;;;;23.83;53.36;99477.81;2007175;80;21039;-76
2021/08/20 08:44:55;;;;;;;4.15;0.60;;;;;;;23.51;52.66;99477.81;2007863;80;20641;-76
2021/08/20 08:48:01;;;;;;;2.08;0.60;;;;;;;23.32;53.25;99485.09;2001751;79;24331;-75
2021/08/20 08:51:04;;;;;;;0.98;0.50;;;;;;;23.46;54.65;99477.22;2002533;81;20324;-76
2021/08/20 08:54:11;;;;;;;0.60;0.40;;;;;;;23.84;55.28;99484.84;2002344;81;20203;-76
2021/08/20 08:57:15;;;;;;;0.86;0.50;;;;;;;23.83;52.72;99486.63;2002727;81;20194;-77
2021/08/20 09:00:32;;;;;;;0.40;0.40;;;;;;;24.02;52.13;99487.28;2001247;81;20386;-75
2021/08/20 09:03:34;;;;;;;0.70;0.40;;;;;;;24.05;51.32;99484.44;2005486;80;20610;-75
2021/08/20 09:06:46;;;;;;;0.68;0.41;;;;;;;24.25;52.12;99487.75;2007260;80;20177;-76
2021/08/20 09:10:28;;;;;;;1.44;0.50;;;;;;;24.48;52.87;99481.97;2007927;80;20234;-76
2021/08/20 09:13:31;;;;;;;0.73;0.73;;;;;;;24.49;51.20;99483.66;2008596;80;20988;-77
2021/08/20 09:16:41;;;;;;;1.26;0.50;;;;;;;23.99;50.92;99487.47;2004876;78;21540;-82
2021/08/20 09:19:44;;;;;;;0.86;0.49;;;;;;;23.85;51.48;99487.41;2003298;81;20201;-80
2021/08/20 09:22:51;;;;;;;0.40;0.40;;;;;;;24.07;51.32;99487.03;2004319;81;20186;-77
2021/08/20 09:25:56;;;;;;;1.79;0.40;;;;;;;24.61;52.35;99485.59;2003515;81;20303;-77
2021/08/20 09:29:12;;;;;;;2.11;0.40;;;;;;;25.03;50.06;99489.25;2003379;81;20249;-72
2021/08/20 09:32:14;;;;;;;0.66;0.50;;;;;;;25.23;49.65;99486.19;2005198;80;20201;-72
2021/08/20 09:35:18;;;;;;;0.55;0.47;;;;;;;25.38;48.32;99483.50;2006469;80;20218;-72
2021/08/20 09:38:20;;;;;;;1.38;0.50;;;;;;;25.43;47.99;99490.25;2003724;80;20587;-71
2021/08/20 09:41:34;;;;;;;2.17;0.50;;;;;;;25.74;48.26;99475.00;2007179;80;20202;-71
2021/08/20 09:44:36;;;;;;;0.70;0.50;;;;;;;25.86;47.64;99483.03;2006945;80;20319;-72
2021/08/20 09:47:57;;;;;;;1.25;0.50;;;;;;;25.06;46.95;99483.75;2002097;78;23517;-71
2021/08/20 09:51:00;;;;;;;1.71;0.38;;;;;;;24.69;48.79;99485.13;2002386;81;20289;-73
2021/08/20 09:54:13;;;;;;;0.51;0.50;;;;;;;24.33;49.98;99480.22;2003051;81;20201;-72
2021/08/20 09:57:32;;;;;;;0.56;0.40;;;;;;;23.81;50.61;99468.16;2002898;81;20239;-72
2021/08/20 10:00:35;;;;;;;0.44;0.40;;;;;;;23.49;53.20;99479.69;2002996;80;20603;-71
2021/08/20 10:03:38;;;;;;;0.40;0.40;;;;;;;23.29;52.31;99477.31;2008074;80;20210;-72
2021/08/20 10:06:43;;;;;;;0.31;0.30;;;;;;;23.53;52.40;99473.31;2006748;80;20234;-72
2021/08/20 10:09:46;;;;;;;0.88;0.49;;;;;;;23.82;51.69;99471.66;2007353;80;20232;-72
2021/08/20 10:12:50;;;;;;;0.73;0.35;;;;;;;24.21;52.01;99472.94;2006882;80;20178;-71
2021/08/20 10:15:58;;;;;;;0.90;0.44;;;;;;;24.30;51.45;99465.34;2006545;77;21022;-71
2021/08/20 10:19:05;;;;;;;0.89;0.45;;;;;;;24.34;51.85;99461.53;2007440;80;20203;-71
2021/08/20 10:22:08;;;;;;;0.65;0.50;;;;;;;24.13;50.74;99456.63;2007556;80;20177;-71
2021/08/20 10:25:11;;;;;;;0.30;0.30;;;;;;;24.07;51.08;99460.50;2007381;80;20214;-71
2021/08/20 10:28:14;;;;;;;0.40;0.40;;;;;;;24.37;51.72;99458.69;2007436;80;20219;-72
2021/08/20 10:31:19;;;;;;;1.60;0.50;;;;;;;24.85;50.45;99455.81;2007452;77;20275;-71
2021/08/20 10:34:31;;;;;;;1.15;0.47;;;;;;;25.05;48.61;99462.56;2008105;80;20753;-72
2021/08/20 10:37:34;;;;;;;0.44;0.38;;;;;;;25.12;48.93;99462.09;2008122;80;20280;-73
2021/08/20 10:40:37;;;;;;;1.54;0.40;;;;;;;24.97;49.07;99457.72;2007630;80;20559;-73
2021/08/20 10:43:56;;;;;;;0.51;0.50;;;;;;;24.73;49.58;99461.88;2006690;80;20265;-72
2021/08/20 10:46:59;;;;;;;1.06;0.41;;;;;;;24.30;49.68;99459.19;2002819;78;22532;-72
2021/08/20 10:50:07;;;;;;;2.25;0.60;;;;;;;24.05;50.63;99462.38;2001874;80;20190;-73
2021/08/20 10:53:21;;;;;;;0.40;0.40;;;;;;;24.04;50.97;99453.56;2002341;81;20263;-73
2021/08/20 10:56:33;;;;;;;1.40;0.40;;;;;;;24.09;50.13;99448.84;2001763;81;20764;-72
2021/08/20 10:59:35;;;;;;;0.40;0.40;;;;;;;24.26;50.81;99447.84;2001237;81;20777;-71
2021/08/20 11:02:38;;;;;;;0.76;0.50;;;;;;;24.67;49.04;99450.69;2004639;78;20813;-72
2021/08/20 11:05:49;;;;;;;0.65;0.50;;;;;;;25.01;48.61;99445.97;2006488;80;20538;-72
2021/08/20 11:08:52;;;;;;;0.61;0.39;;;;;;;25.41;48.25;99448.75;2006777;80;20197;-71
2021/08/20 11:11:55;;;;;;;0.98;0.40;;;;;;;25.70;47.61;99439.78;2007304;80;20944;-72
2021/08/20 11:15:17;;;;;;;1.11;0.40;;;;;;;26.08;46.63;99444.34;2005535;80;20200;-72
2021/08/20 11:18:45;;;;;;;2.16;0.40;;;;;;;26.26;46.32;99445.78;1996279;78;27967;-73
2021/08/20 11:21:47;;;;;;;0.49;0.49;;;;;;;26.29;46.13;99442.88;1994762;81;20320;-72
2021/08/20 11:25:15;;;;;;;1.11;0.50;;;;;;;26.09;46.54;99451.38;1996464;81;20222;-72
2021/08/20 11:28:21;;;;;;;2.46;0.49;;;;;;;26.07;47.26;99459.47;1996003;81;20263;-72
2021/08/20 11:31:24;;;;;;;0.45;0.45;;;;;;;25.93;47.16;99458.69;1998375;78;20315;-72
2021/08/20 11:34:28;;;;;;;0.40;0.40;;;;;;;25.69;47.56;99451.38;2007145;80;20207;-71
2021/08/20 11:37:31;;;;;;;0.75;0.40;;;;;;;25.73;47.49;99452.00;2010590;80;20319;-71
2021/08/20 11:40:47;;;;;;;0.60;0.40;;;;;;;25.91;46.35;99456.13;2006900;80;20176;-72
2021/08/20 11:43:53;;;;;;;0.63;0.39;;;;;;;26.13;46.01;99455.53;2010497;80;20194;-73
2021/08/20 11:46:56;;;;;;;0.79;0.46;;;;;;;26.16;46.36;99456.16;2006443;78;21065;-73
2021/08/20 11:50:07;;;;;;;0.73;0.50;;;;;;;25.82;45.96;99451.41;2002118;80;20270;-73
2021/08/20 11:53:09;;;;;;;1.67;0.50;;;;;;;25.39;46.62;99450.66;2006380;80;21004;-73
2021/08/20 11:56:14;;;;;;;1.40;0.44;;;;;;;25.06;48.08;99448.34;2007055;80;20186;-73
2021/08/20 11:59:21;;;;;;;0.59;0.59;;;;;;;24.78;48.88;99446.53;2006885;80;20281;-73
2021/08/20 12:02:24;;;;;;;0.85;0.40;;;;;;;24.82;50.11;99448.03;2010280;77;20640;-73
2021/08/20 12:05:27;;;;;;;0.70;0.43;;;;;;;24.93;46.89;99448.22;2011773;80;20210;-72
2021/08/20 12:08:29;;;;;;;2.60;0.50;;;;;;;25.05;48.01;99441.31;2011608;80;20172;-72
2021/08/20 12:11:32;;;;;;;3.33;0.50;;;;;;;25.05;48.43;99441.31;2012930;80;20246;-72
2021/08/20 12:14:34;;;;;;;0.70;0.40;;;;;;;25.18;48.96;99443.13;2012212;80;20806;-72
2021/08/20 12:17:47;;;;;;;0.54;0.52;;;;;;;25.60;47.20;99443.94;2006267;78;21796;-71
2021/08/20 12:20:52;;;;;;;0.51;0.45;;;;;;;25.69;46.09;99439.88;2009874;80;20364;-72
2021/08/20 12:24:07;;;;;;;1.88;0.50;;;;;;;26.00;46.30;99438.66;2006688;80;20755;-72
2021/08/20 12:27:10;;;;;;;0.50;0.50;;;;;;;26.25;46.90;99441.41;2006330;80;20227;-72
2021/08/20 12:30:17;;;;;;;1.35;0.47;;;;;;;26.11;46.25;99445.00;2006879;80;20162;-72
2021/08/20 12:33:20;;;;;;;1.06;0.31;;;;;;;26.03;46.76;99447.34;2011474;78;23064;-73
2021/08/20 12:36:22;;;;;;;2.22;0.50;;;;;;;25.95;47.26;99448.78;2011690;80;20191;-75
2021/08/20 12:39:40;;;;;;;0.94;0.47;;;;;;;25.81;47.48;99449.69;2011738;80;20653;-73
2021/08/20 12:42:46;;;;;;;2.58;0.41;;;;;;;25.83;46.56;99458.41;2011332;80;20229;-74
2021/08/20 12:46:11;;;;;;;0.60;0.50;;;;;;;25.96;47.01;99451.34;2005773;78;22752;-74
2021/08/20 12:49:16;;;;;;;3.56;0.50;;;;;;;26.36;47.90;99443.34;2006094;80;20308;-75
2021/08/20 12:52:31;;;;;;;1.36;0.50;;;;;;;26.74;45.94;99443.34;2005851;80;20209;-72
2021/08/20 12:55:38;;;;;;;0.88;0.47;;;;;;;26.79;44.55;99444.75;2005624;80;20760;-74
2021/08/20 12:58:41;;;;;;;0.34;0.34;;;;;;;27.03;43.57;99436.00;2005221;80;20172;-73
2021/08/20 13:01:43;;;;;;;1.96;0.60;;;;;;;26.90;43.55;99445.78;2005014;78;22841;-72
2021/08/20 13:04:46;;;;;;;1.00;0.50;;;;;;;26.64;44.06;99444.97;2005248;80;20232;-74
2021/08/20 13:07:49;;;;;;;0.50;0.50;;;;;;;26.46;45.16;99441.78;2005573;80;20760;-74
2021/08/20 13:10:54;;;;;;;0.55;0.50;;;;;;;26.16;44.19;99439.34;2004723;80;20258;-74
2021/08/20 13:13:57;;;;;;;3.20;0.50;;;;;;;26.14;44.68;99436.78;2004817;80;20239;-73
2021/08/20 13:16:59;;;;;;;0.94;0.45;;;;;;;26.23;44.95;99434.47;2004091;78;21468;-73
2021/08/20 13:20:02;;;;;;;0.94;0.50;;;;;;;26.20;44.22;99440.84;2004817;80;20196;-72
2021/08/20 13:23:05;;;;;;;0.82;0.60;;;;;;;26.44;45.12;99441.03;2004746;80;20238;-72
2021/08/20 13:26:08;;;;;;;2.21;0.40;;;;;;;26.82;46.56;99429.50;2005532;80;20181;-71
2021/08/20 13:29:11;;;;;;;5.69;0.65;;;;;;;27.06;44.72;99431.28;2006419;80;20218;-73
2021/08/20 13:32:14;;;;;;;1.15;0.50;;;;;;;26.95;43.76;99428.53;2009146;77;20858;-73
2021/08/20 13:35:16;;;;;;;1.92;0.60;;;;;;;26.91;43.25;99432.34;2010902;80;20184;-73
2021/08/20 13:38:19;;;;;;;1.55;0.59;;;;;;;27.02;42.51;99436.97;2011522;80;20245;-73
2021/08/20 13:41:23;;;;;;;1.24;0.50;;;;;;;26.76;41.63;99430.81;2011880;80;20232;-72
2021/08/20 13:44:25;;;;;;;0.50;0.50;;;;;;;26.53;43.64;99429.72;2012593;80;20172;-73
2021/08/20 13:47:28;;;;;;;0.91;0.41;;;;;;;26.27;44.07;99428.84;2003684;78;21466;-74
2021/08/20 13:50:30;;;;;;;0.95;0.50;;;;;;;26.00;44.96;99428.88;2006502;80;20211;-73
2021/08/20 13:53:35;;;;;;;0.80;0.44;;;;;;;25.64;45.49;99432.16;2007468;80;20279;-71
2021/08/20 13:56:38;;;;;;;0.50;0.49;;;;;;;25.35;44.91;99425.22;2006981;80;20218;-72
2021/08/20 13:59:40;;;;;;;0.70;0.49;;;;;;;25.45;46.35;99423.66;2006549;80;20181;-71
2021/08/20 14:02:43;;;;;;;2.00;0.80;;;;;;;25.72;45.98;99424.56;2011469;80;22367;-72
2021/08/20 14:05:46;;;;;;;2.75;0.50;;;;;;;26.21;45.59;99418.59;2012194;80;20184;-73
2021/08/20 14:08:48;;;;;;;2.41;0.60;;;;;;;26.47;43.22;99417.69;2012869;80;20218;-71
2021/08/20 14:11:51;;;;;;;0.66;0.50;;;;;;;26.16;41.64;99413.59;2012952;80;20928;-73
2021/08/20 14:14:53;;;;;;;1.61;0.50;;;;;;;25.96;43.83;99421.22;2013019;80;20312;-72
2021/08/20 14:17:56;;;;;;;0.50;0.50;;;;;;;25.66;44.77;99419.59;2007434;78;20258;-72
2021/08/20 14:21:01;;;;;;;1.20;0.60;;;;;;;25.45;46.17;99421.84;2007785;80;20184;-72
2021/08/20 14:24:04;;;;;;;1.69;0.50;;;;;;;25.25;46.50;99424.97;2007584;80;20239;-73
2021/08/20 14:27:06;;;;;;;1.88;0.50;;;;;;;25.15;47.82;99430.03;2005683;80;20189;-72